Time;durP1;ratioP1;P1;durP2;ratioP2;P2;SDS_P1;SDS_P2;PMS_P1;PMS_P2;Temp;Humidity;BMP_temperature;BMP_pressure;BME280_temperature;BME280_humidity;BME280_pressure;Samples;Min_cycle;Max_cycle;Signal;HPM_P1;HPM_P2
2023/01/07 00:01:24;;;;;;;47.35;19.65;;;;;;;1.06;100.00;98280.16;6241804;23;20019;-77
2023/01/07 00:03:52;;;;;;;53.10;19.77;;;;;;;1.08;100.00;98295.06;6216523;23;20356;-77
2023/01/07 00:06:18;;;;;;;48.83;18.58;;;;;;;1.29;100.00;98335.22;6216314;23;20091;-77
2023/01/07 00:08:46;;;;;;;44.85;16.42;;;;;;;1.26;100.00;98330.81;6241720;23;20029;-77
2023/01/07 00:11:18;;;;;;;53.95;19.13;;;;;;;0.99;100.00;98291.66;6241466;23;20000;-78
2023/01/07 00:13:44;;;;;;;41.23;19.53;;;;;;;0.97;100.00;98294.31;6216696;23;20004;-78
2023/01/07 00:16:13;;;;;;;40.40;17.63;;;;;;;1.01;100.00;98303.06;6216459;23;20008;-76
2023/01/07 00:18:39;;;;;;;32.13;13.90;;;;;;;0.94;100.00;98317.19;6216353;23;20061;-78
2023/01/07 00:21:07;;;;;;;46.67;18.40;;;;;;;1.06;100.00;98344.25;6216288;23;20004;-78
2023/01/07 00:23:34;;;;;;;61.83;17.52;;;;;;;0.58;100.00;98286.00;6216410;23;20000;-77
2023/01/07 00:26:01;;;;;;;32.95;14.57;;;;;;;0.61;100.00;98309.66;6216231;23;20012;-76
2023/01/07 00:28:27;;;;;;;43.28;16.63;;;;;;;0.58;100.00;98314.97;6216120;23;20364;-78
2023/01/07 00:31:00;;;;;;;47.58;15.88;;;;;;;0.44;100.00;98315.09;6215937;23;20011;-77
2023/01/07 00:33:27;;;;;;;32.40;14.05;;;;;;;0.36;100.00;98320.44;6216063;23;20321;-77
2023/01/07 00:36:02;;;;;;;29.73;14.80;;;;;;;0.49;100.00;98356.25;6216548;23;20079;-77
2023/01/07 00:38:28;;;;;;;35.83;15.07;;;;;;;0.45;100.00;98351.06;6216064;23;20015;-76
2023/01/07 00:40:54;;;;;;;47.28;18.15;;;;;;;0.39;100.00;98338.81;6216268;23;20000;-78
2023/01/07 00:43:20;;;;;;;43.67;17.48;;;;;;;0.34;100.00;98329.25;6241292;23;20000;-77
2023/01/07 00:45:45;;;;;;;42.42;16.17;;;;;;;0.30;100.00;98320.50;6216048;23;20004;-77
2023/01/07 00:49:14;;;;;;;41.20;17.35;;;;;;;0.40;100.00;98323.91;5088522;27;20235;-78
2023/01/07 00:51:58;;;;;;;37.13;15.82;;;;;;;0.66;100.00;98369.25;5042342;28;20115;-78
2023/01/07 00:54:24;;;;;;;39.20;17.02;;;;;;;0.33;100.00;98320.47;5044287;28;20029;-77
2023/01/07 00:56:49;;;;;;;34.17;16.38;;;;;;;0.43;100.00;98334.41;5045650;28;20039;-77
2023/01/07 00:59:15;;;;;;;38.63;17.23;;;;;;;0.44;100.00;98337.03;5045403;28;20107;-77
2023/01/07 01:01:40;;;;;;;45.20;16.83;;;;;;;0.50;100.00;98357.13;5034228;28;20036;-78
2023/01/07 01:04:07;;;;;;;39.03;16.63;;;;;;;0.50;100.00;98354.50;5046005;28;20162;-76
2023/01/07 01:06:32;;;;;;;43.65;18.98;;;;;;;0.54;100.00;98359.75;5041637;28;20180;-77
2023/01/07 01:08:58;;;;;;;41.88;17.42;;;;;;;0.49;100.00;98344.88;5049943;28;20496;-77
2023/01/07 01:11:23;;;;;;;55.38;17.75;;;;;;;0.42;100.00;98335.28;5062922;28;20403;-77
2023/01/07 01:13:49;;;;;;;44.90;18.55;;;;;;;0.59;100.00;98369.31;5065959;28;20035;-78
2023/01/07 01:16:16;;;;;;;44.72;18.15;;;;;;;0.54;100.00;98370.25;5046214;28;20029;-77
2023/01/07 01:18:42;;;;;;;46.05;18.33;;;;;;;0.54;100.00;98367.63;5044232;28;20115;-77
2023/01/07 01:21:11;;;;;;;52.22;22.30;;;;;;;0.52;100.00;98369.38;5046664;28;20060;-78
2023/01/07 01:23:37;;;;;;;44.80;18.20;;;;;;;0.35;100.00;98330.97;5043840;28;20062;-78
2023/01/07 01:26:04;;;;;;;49.15;19.65;;;;;;;0.35;100.00;98330.97;5055155;28;20056;-79
2023/01/07 01:28:30;;;;;;;42.20;15.35;;;;;;;0.45;100.00;98344.03;5065248;28;20416;-77
2023/01/07 01:30:56;;;;;;;37.00;15.27;;;;;;;0.32;100.00;98336.25;5066406;28;20085;-77
2023/01/07 01:33:21;;;;;;;41.00;16.98;;;;;;;0.27;100.00;98317.91;5055717;28;20063;-77
2023/01/07 01:35:47;;;;;;;37.42;16.75;;;;;;;0.35;100.00;98331.84;5037691;28;20040;-78
2023/01/07 01:38:12;;;;;;;38.17;15.27;;;;;;;0.23;100.00;98326.69;5046092;28;20032;-78
2023/01/07 01:40:38;;;;;;;31.42;13.35;;;;;;;0.31;100.00;98332.75;5061363;28;20039;-77
2023/01/07 01:43:04;;;;;;;28.13;12.75;;;;;;;0.35;100.00;98345.00;5040911;28;20119;-77
2023/01/07 01:45:29;;;;;;;27.55;12.82;;;;;;;0.11;100.00;98326.81;5039567;28;20029;-77
2023/01/07 01:48:06;;;;;;;33.58;12.93;;;;;;;0.09;100.00;98331.22;5045937;28;20076;-77
2023/01/07 01:50:38;;;;;;;25.85;11.63;;;;;;;0.23;100.00;98350.38;5045191;28;20111;-77
2023/01/07 01:53:07;;;;;;;29.67;11.60;;;;;;;0.31;100.00;98353.78;5044064;28;20116;-77
2023/01/07 01:55:37;;;;;;;28.77;11.65;;;;;;;0.13;100.00;98326.75;5045635;28;20055;-79
2023/01/07 01:58:08;;;;;;;24.65;10.77;;;;;;;0.29;100.00;98352.06;5045132;28;20025;-79
2023/01/07 02:00:34;;;;;;;31.15;13.23;;;;;;;0.30;100.00;98345.94;5027867;28;20513;-79
2023/01/07 02:03:00;;;;;;;29.23;11.93;;;;;;;0.31;100.00;98355.53;5039865;28;20503;-79
2023/01/07 02:05:29;;;;;;;38.78;14.75;;;;;;;0.19;100.00;98335.47;5031619;28;20025;-78
2023/01/07 02:07:55;;;;;;;28.98;13.63;;;;;;;0.29;100.00;98357.31;5019275;28;20514;-78
2023/01/07 02:10:22;;;;;;;33.65;15.63;;;;;;;0.27;100.00;98354.72;5020049;28;20028;-78
2023/01/07 02:12:57;;;;;;;29.70;14.98;;;;;;;0.36;100.00;98356.41;5030775;28;20024;-79
2023/01/07 02:16:01;;;;;;;32.83;13.95;;;;;;;0.38;100.00;98354.63;5065303;28;20104;-79
2023/01/07 02:18:53;;;;;;;31.48;13.95;;;;;;;0.38;100.00;98357.25;5046914;28;20553;-78
2023/01/07 02:22:00;;;;;;;35.05;14.45;;;;;;;0.34;100.00;98358.19;5034597;28;20031;-79
2023/01/07 02:24:44;;;;;;;32.67;13.85;;;;;;;0.33;100.00;98359.94;4968487;28;20046;-79
2023/01/07 02:27:14;;;;;;;31.80;14.80;;;;;;;0.32;100.00;98363.44;5041361;28;20455;-79
2023/01/07 02:30:24;;;;;;;27.58;12.55;;;;;;;0.31;100.00;98366.94;5046424;28;20510;-79
2023/01/07 02:33:08;;;;;;;32.30;14.63;;;;;;;0.29;100.00;98368.72;4987625;28;20037;-79
2023/01/07 02:35:39;;;;;;;36.75;16.40;;;;;;;0.34;100.00;98372.19;5027377;28;20098;-77
2023/01/07 02:38:21;;;;;;;23.95;10.70;;;;;;;0.26;100.00;98368.75;5038318;28;20025;-78
2023/01/07 02:41:27;;;;;;;32.40;13.80;;;;;;;0.25;100.00;98361.72;5044505;28;20079;-79
2023/01/07 02:44:23;;;;;;;36.78;17.15;;;;;;;0.16;100.00;98367.06;5051354;28;20089;-79
2023/01/07 02:46:50;;;;;;;40.80;15.50;;;;;;;0.10;100.00;98367.13;4992146;28;20496;-79
2023/01/07 02:49:17;;;;;;;42.67;16.58;;;;;;;0.17;100.00;98371.47;5024485;28;20031;-79
2023/01/07 02:51:45;;;;;;;41.70;17.75;;;;;;;0.19;100.00;98377.56;5027146;28;20108;-79
2023/01/07 02:54:22;;;;;;;35.40;16.27;;;;;;;0.13;100.00;98366.22;5033461;28;20029;-79
2023/01/07 02:57:15;;;;;;;40.22;16.90;;;;;;;0.12;100.00;98381.16;5036533;28;20074;-79
2023/01/07 03:00:02;;;;;;;45.65;20.17;;;;;;;0.05;100.00;98371.56;5045628;28;20029;-79
2023/01/07 03:02:46;;;;;;;51.65;20.33;;;;;;;0.07;100.00;98376.78;5042797;28;20024;-79
2023/01/07 03:05:14;;;;;;;51.10;19.15;;;;;;;0.01;100.00;98364.56;5057940;28;20036;-78
2023/01/07 03:07:56;;;;;;;48.05;20.50;;;;;;;-0.10;100.00;98354.13;5042866;28;20028;-78
2023/01/07 03:10:24;;;;;;;42.00;18.55;;;;;;;0.01;100.00;98367.19;5021457;28;20472;-79
2023/01/07 03:13:01;;;;;;;38.50;16.77;;;;;;;-0.02;100.00;98375.97;5019503;28;20033;-78
2023/01/07 03:15:37;;;;;;;48.50;19.17;;;;;;;-0.07;100.00;98379.53;5029297;28;20046;-78
2023/01/07 03:18:21;;;;;;;45.75;19.20;;;;;;;-0.23;100.00;98362.97;5034482;28;20025;-79
2023/01/07 03:20:50;;;;;;;47.00;18.63;;;;;;;-0.32;100.00;98359.53;5027024;28;20025;-79
2023/01/07 03:23:18;;;;;;;48.45;21.25;;;;;;;-0.41;100.00;98364.84;5037532;28;20035;-78
2023/01/07 03:25:46;;;;;;;32.95;14.35;;;;;;;-0.35;100.00;98377.94;5037175;28;20471;-78
2023/01/07 03:28:15;;;;;;;40.05;16.52;;;;;;;-0.47;100.00;98368.38;5021525;28;20032;-80
2023/01/07 03:30:41;;;;;;;32.53;14.95;;;;;;;-0.48;100.00;98378.88;5030609;28;20028;-80
2023/01/07 03:33:21;;;;;;;32.28;14.85;;;;;;;-0.51;100.00;98384.16;5021125;28;20097;-78
2023/01/07 03:35:49;;;;;;;35.30;14.45;;;;;;;-0.47;100.00;98388.53;5006939;28;20027;-79
2023/01/07 03:38:16;;;;;;;30.88;13.45;;;;;;;-0.59;100.00;98379.84;5025634;28;20016;-79
2023/01/07 03:40:42;;;;;;;31.20;13.18;;;;;;;-0.56;100.00;98392.97;5029620;28;20028;-79
2023/01/07 03:43:16;;;;;;;33.92;13.48;;;;;;;-0.66;100.00;98380.72;5026085;28;20017;-79
2023/01/07 03:45:42;;;;;;;27.15;13.40;;;;;;;-0.70;100.00;98381.63;5021545;28;20025;-79
2023/01/07 03:48:08;;;;;;;31.55;13.63;;;;;;;-0.67;100.00;98388.59;5025492;28;20132;-79
2023/01/07 03:50:33;;;;;;;34.65;14.88;;;;;;;-0.66;100.00;98387.72;5029610;28;20106;-80
2023/01/07 03:52:59;;;;;;;34.22;14.57;;;;;;;-0.74;100.00;98374.63;5029615;28;20086;-80
2023/01/07 03:55:24;;;;;;;41.58;14.50;;;;;;;-0.66;100.00;98380.72;5030444;28;20124;-81
2023/01/07 03:57:53;;;;;;;32.13;13.70;;;;;;;-0.66;100.00;98388.63;5024716;28;20094;-79
2023/01/07 04:00:19;;;;;;;35.47;12.93;;;;;;;-0.69;100.00;98399.13;5028564;28;20094;-80
2023/01/07 04:02:44;;;;;;;24.67;12.68;;;;;;;-0.67;100.00;98400.00;5020498;28;20024;-80
2023/01/07 04:05:10;;;;;;;32.90;13.38;;;;;;;-0.59;100.00;98403.47;5036628;28;20036;-81
2023/01/07 04:07:36;;;;;;;30.90;13.07;;;;;;;-0.63;100.00;98406.09;5044936;28;20021;-80
2023/01/07 04:10:02;;;;;;;34.15;14.35;;;;;;;-0.68;100.00;98400.00;5049118;28;20039;-81
2023/01/07 04:12:33;;;;;;;30.95;12.82;;;;;;;-0.75;100.00;98393.91;5024350;28;20036;-78
2023/01/07 04:14:59;;;;;;;27.95;11.57;;;;;;;-0.68;100.00;98406.09;5035773;28;20032;-79
2023/01/07 04:17:25;;;;;;;27.05;11.48;;;;;;;-0.66;100.00;98401.75;5037562;28;20020;-80
2023/01/07 04:19:50;;;;;;;38.30;14.45;;;;;;;-0.51;100.00;98413.06;5022389;28;20060;-80
2023/01/07 04:22:16;;;;;;;35.42;13.80;;;;;;;-0.59;100.00;98402.59;5041085;28;20032;-79
2023/01/07 04:24:41;;;;;;;31.88;13.55;;;;;;;-0.53;100.00;98412.19;5024728;28;20024;-79
2023/01/07 04:27:07;;;;;;;33.25;13.57;;;;;;;-0.49;100.00;98411.31;5029204;28;20100;-79
2023/01/07 04:29:33;;;;;;;36.92;15.85;;;;;;;-0.57;100.00;98413.97;5036503;28;20032;-80
2023/01/07 04:31:58;;;;;;;30.48;15.52;;;;;;;-0.53;100.00;98417.47;5053088;28;20028;-81
2023/01/07 04:34:27;;;;;;;30.05;13.77;;;;;;;-0.59;100.00;98416.63;5021462;28;20513;-80
2023/01/07 04:36:53;;;;;;;40.25;15.88;;;;;;;-0.52;100.00;98411.34;5023430;28;20028;-80
2023/01/07 04:39:27;;;;;;;33.67;15.25;;;;;;;-0.57;100.00;98403.44;5026562;28;20110;-80
2023/01/07 04:41:59;;;;;;;39.38;15.27;;;;;;;-0.53;100.00;98412.19;5032829;28;20029;-79
2023/01/07 04:44:24;;;;;;;53.00;19.73;;;;;;;-0.45;100.00;98419.16;5027345;28;20456;-79
2023/01/07 04:46:50;;;;;;;51.92;18.58;;;;;;;-0.39;100.00;98424.38;5019490;28;20043;-79
2023/01/07 04:49:16;;;;;;;45.28;18.00;;;;;;;-0.38;100.00;98420.88;5039583;28;20107;-79
2023/01/07 04:51:41;;;;;;;50.03;18.17;;;;;;;-0.52;100.00;98396.41;5020766;28;20057;-79
2023/01/07 04:54:07;;;;;;;43.78;18.67;;;;;;;-0.51;100.00;98392.03;5044738;28;20032;-79
2023/01/07 04:56:32;;;;;;;53.90;20.17;;;;;;;-0.33;100.00;98418.22;5028815;28;20021;-80
2023/01/07 04:58:58;;;;;;;53.95;20.17;;;;;;;-0.45;100.00;98416.53;5016029;28;20044;-79
2023/01/07 05:01:24;;;;;;;49.13;19.70;;;;;;;-0.54;100.00;98408.69;5034232;28;20032;-79
2023/01/07 05:03:49;;;;;;;58.30;24.60;;;;;;;-0.47;100.00;98430.56;5018907;28;20115;-80
2023/01/07 05:06:15;;;;;;;65.53;24.10;;;;;;;-0.51;100.00;98420.94;5049283;28;20483;-80
2023/01/07 05:08:43;;;;;;;41.83;17.33;;;;;;;-0.51;100.00;98424.44;5025183;28;20029;-79
2023/01/07 05:11:20;;;;;;;52.60;21.13;;;;;;;-0.67;100.00;98402.63;5004204;28;20029;-81
2023/01/07 05:13:46;;;;;;;52.28;21.17;;;;;;;-0.55;100.00;98425.31;5027939;28;20036;-80
2023/01/07 05:16:11;;;;;;;55.15;21.05;;;;;;;-0.62;100.00;98410.50;5017252;28;20021;-80
2023/01/07 05:18:37;;;;;;;65.35;23.80;;;;;;;-0.56;100.00;98420.97;5024695;28;20020;-79
2023/01/07 05:21:12;;;;;;;62.80;24.70;;;;;;;-0.62;100.00;98413.13;5024300;28;20408;-79
2023/01/07 05:23:38;;;;;;;43.90;20.25;;;;;;;-0.55;100.00;98430.56;5041991;28;20021;-79
2023/01/07 05:26:19;;;;;;;48.25;20.42;;;;;;;-0.83;100.00;98385.16;5053922;28;20602;-80
2023/01/07 05:28:44;;;;;;;47.88;21.52;;;;;;;-0.80;100.00;98389.56;5033086;28;20032;-80
2023/01/07 05:31:13;;;;;;;52.85;24.42;;;;;;;-0.64;100.00;98412.22;5026203;28;20029;-79
2023/01/07 05:33:43;;;;;;;85.22;28.00;;;;;;;-0.61;100.00;98428.84;5024258;28;20040;-80
2023/01/07 05:36:16;;;;;;;85.60;32.53;;;;;;;-0.83;100.00;98406.16;5040412;28;20024;-79
2023/01/07 05:38:47;;;;;;;60.75;25.98;;;;;;;-1.00;100.00;98386.97;5037393;28;20494;-80
2023/01/07 05:41:12;;;;;;;75.90;29.45;;;;;;;-0.68;100.00;98440.25;5027141;28;20029;-79
2023/01/07 05:43:38;;;;;;;80.55;32.92;;;;;;;-0.80;100.00;98429.78;5025042;28;20132;-78
2023/01/07 05:46:04;;;;;;;72.32;30.05;;;;;;;-0.78;100.00;98435.94;5044582;28;20029;-79
2023/01/07 05:48:29;;;;;;;68.15;30.20;;;;;;;-0.77;100.00;98442.91;5034394;28;20102;-79
2023/01/07 05:50:55;;;;;;;76.97;31.58;;;;;;;-0.80;100.00;98453.44;5032502;28;20064;-80
2023/01/07 05:53:20;;;;;;;58.85;25.08;;;;;;;-0.91;100.00;98439.47;5024967;28;20491;-79
2023/01/07 05:55:46;;;;;;;65.53;24.90;;;;;;;-0.94;100.00;98449.97;5038980;28;20372;-80
2023/01/07 05:58:13;;;;;;;45.85;20.92;;;;;;;-0.88;100.00;98439.47;5046986;28;20025;-79
2023/01/07 06:00:39;;;;;;;46.78;18.92;;;;;;;-0.93;100.00;98433.34;5052706;28;20040;-80
2023/01/07 06:03:05;;;;;;;47.92;20.00;;;;;;;-1.13;100.00;98414.13;5033941;28;20063;-80
2023/01/07 06:05:31;;;;;;;52.00;20.52;;;;;;;-1.02;100.00;98429.88;5029411;28;20033;-79
2023/01/07 06:07:56;;;;;;;51.70;19.85;;;;;;;-1.00;100.00;98431.63;5033800;28;20033;-79
2023/01/07 06:10:22;;;;;;;43.80;20.40;;;;;;;-0.91;100.00;98441.22;5027424;28;20109;-79
2023/01/07 06:12:50;;;;;;;45.58;19.55;;;;;;;-0.96;100.00;98436.00;5031230;28;20541;-81
2023/01/07 06:15:15;;;;;;;54.50;21.50;;;;;;;-0.98;100.00;98432.47;5023264;28;20036;-81
2023/01/07 06:17:41;;;;;;;71.05;30.23;;;;;;;-0.90;100.00;98438.59;5028470;28;20029;-79
2023/01/07 06:20:08;;;;;;;83.90;30.65;;;;;;;-0.96;100.00;98416.72;5027081;28;20037;-80
2023/01/07 06:22:33;;;;;;;49.45;22.85;;;;;;;-0.79;100.00;98454.31;5029640;28;20178;-80
2023/01/07 06:24:59;;;;;;;44.90;18.20;;;;;;;-0.76;100.00;98447.28;5032364;28;20115;-80
2023/01/07 06:27:25;;;;;;;52.38;20.60;;;;;;;-0.85;100.00;98433.31;5031097;28;20032;-81
2023/01/07 06:29:50;;;;;;;39.78;16.92;;;;;;;-0.81;100.00;98445.56;5023792;28;20029;-76
2023/01/07 06:32:16;;;;;;;47.83;17.85;;;;;;;-0.74;100.00;98453.41;5031036;28;20127;-75
2023/01/07 06:34:41;;;;;;;49.05;18.08;;;;;;;-0.67;100.00;98454.25;5034252;28;20068;-73
2023/01/07 06:37:07;;;;;;;45.45;17.77;;;;;;;-0.72;100.00;98432.41;5031554;28;20036;-76
2023/01/07 06:39:32;;;;;;;47.78;17.08;;;;;;;-0.67;100.00;98434.13;5029158;28;20032;-76
2023/01/07 06:42:24;;;;;;;49.78;19.02;;;;;;;-0.47;100.00;98456.84;5025392;28;20480;-79
2023/01/07 06:44:49;;;;;;;51.35;19.80;;;;;;;-0.61;100.00;98425.34;5051882;28;20043;-76
2023/01/07 06:47:15;;;;;;;44.97;18.73;;;;;;;-0.31;100.00;98453.28;5035076;28;20053;-73
2023/01/07 06:49:40;;;;;;;43.28;19.95;;;;;;;-0.17;100.00;98452.31;5044856;28;20115;-75
2023/01/07 06:52:06;;;;;;;47.22;20.20;;;;;;;0.09;100.00;98448.66;5048734;28;20029;-75
2023/01/07 06:54:32;;;;;;;60.58;25.25;;;;;;;0.02;100.00;98421.53;5032473;28;20045;-73
2023/01/07 06:56:57;;;;;;;84.90;35.63;;;;;;;0.80;100.00;98450.75;5060464;28;20032;-74
2023/01/07 06:59:23;;;;;;;71.13;30.42;;;;;;;2.27;100.00;98467.47;5058678;28;20033;-73
2023/01/07 07:01:48;;;;;;;111.32;45.60;;;;;;;3.46;100.00;98433.72;5053947;28;20060;-73
2023/01/07 07:04:14;;;;;;;107.03;49.28;;;;;;;4.69;100.00;98404.47;5049650;28;20032;-74
2023/01/07 07:06:39;;;;;;;96.82;39.92;;;;;;;5.90;100.00;98370.19;5034136;28;20033;-75
2023/01/07 07:09:05;;;;;;;95.78;42.28;;;;;;;6.43;90.25;98338.41;5021025;28;20478;-74
2023/01/07 07:11:30;;;;;;;100.53;43.97;;;;;;;6.84;84.55;98321.94;5054238;28;20499;-74
2023/01/07 07:13:56;;;;;;;102.53;43.65;;;;;;;7.07;83.10;98299.88;5072031;28;20037;-73
2023/01/07 07:16:22;;;;;;;90.00;41.40;;;;;;;7.87;76.08;98299.47;5054041;28;20033;-74
2023/01/07 07:18:48;;;;;;;130.23;51.78;;;;;;;8.49;72.19;98294.28;5052975;28;20029;-75
2023/01/07 07:21:14;;;;;;;116.57;51.80;;;;;;;8.12;70.51;98262.91;5034220;28;20052;-74
2023/01/07 07:23:39;;;;;;;108.13;46.42;;;;;;;7.91;72.43;98266.44;5059799;28;20032;-74
2023/01/07 07:26:09;;;;;;;107.35;43.83;;;;;;;8.60;68.79;98264.50;5053728;28;20028;-75
2023/01/07 07:28:35;;;;;;;83.68;40.08;;;;;;;8.88;67.06;98253.53;5022114;28;20032;-73
2023/01/07 07:31:00;;;;;;;80.70;36.90;;;;;;;9.15;64.96;98233.59;5035860;28;20029;-73
2023/01/07 07:33:26;;;;;;;72.63;33.10;;;;;;;9.15;65.57;98237.16;5037089;28;20384;-75
2023/01/07 07:35:53;;;;;;;65.35;30.95;;;;;;;9.91;63.82;98249.59;5036629;28;20024;-72
2023/01/07 07:38:18;;;;;;;60.95;30.33;;;;;;;10.16;62.03;98233.25;5036927;28;20020;-73
2023/01/07 07:40:45;;;;;;;70.03;31.42;;;;;;;9.93;61.85;98214.78;5053673;28;20024;-80
2023/01/07 07:43:10;;;;;;;72.10;32.38;;;;;;;9.83;63.04;98209.03;5016952;28;20043;-79
2023/01/07 07:45:36;;;;;;;62.10;29.77;;;;;;;9.74;63.22;98209.47;5033802;28;20021;-72
2023/01/07 07:48:04;;;;;;;67.18;31.25;;;;;;;10.09;62.95;98211.28;5033098;28;20120;-74
2023/01/07 07:50:30;;;;;;;70.25;33.78;;;;;;;10.44;61.71;98214.91;5039839;28;20547;-77
2023/01/07 07:52:56;;;;;;;78.07;34.40;;;;;;;10.84;59.81;98205.69;5045249;28;20143;-76
2023/01/07 07:55:21;;;;;;;74.20;34.38;;;;;;;10.56;61.07;98192.88;5037157;28;20025;-72
2023/01/07 07:57:47;;;;;;;69.55;35.08;;;;;;;10.83;59.50;98193.25;5039235;28;20473;-78
2023/01/07 08:00:13;;;;;;;88.63;40.17;;;;;;;11.55;58.39;98204.50;5051976;28;20032;-78
2023/01/07 08:02:38;;;;;;;68.80;32.30;;;;;;;11.45;57.51;98192.53;5025479;28;20404;-75
2023/01/07 08:05:04;;;;;;;60.78;29.08;;;;;;;11.60;57.46;98186.31;5032352;28;20040;-78
2023/01/07 08:07:30;;;;;;;51.83;28.23;;;;;;;11.44;59.67;98194.34;5068857;28;20039;-79
2023/01/07 08:09:55;;;;;;;60.88;31.42;;;;;;;11.50;57.63;98184.25;5025423;28;20139;-77
2023/01/07 08:12:21;;;;;;;52.53;24.35;;;;;;;11.80;57.49;98179.91;5030856;28;20467;-77
2023/01/07 08:14:46;;;;;;;52.50;26.63;;;;;;;11.61;58.02;98187.19;5054037;28;20047;-76
2023/01/07 08:17:12;;;;;;;47.00;23.98;;;;;;;12.22;56.85;98196.19;5065694;28;20453;-80
2023/01/07 08:19:37;;;;;;;41.42;23.58;;;;;;;12.48;55.75;98179.44;5013963;28;20036;-76
2023/01/07 08:22:03;;;;;;;44.20;22.17;;;;;;;12.13;56.23;98169.03;5021819;28;20036;-78
2023/01/07 08:24:29;;;;;;;36.70;19.90;;;;;;;12.03;57.47;98176.75;5041827;28;20514;-79
2023/01/07 08:26:55;;;;;;;43.92;22.00;;;;;;;11.72;58.59;98185.66;5041920;28;20033;-79
2023/01/07 08:29:21;;;;;;;32.35;16.80;;;;;;;11.17;60.59;98171.75;5065600;28;20137;-78
2023/01/07 08:31:47;;;;;;;27.83;15.65;;;;;;;11.36;61.03;98198.41;5044508;28;20028;-77
2023/01/07 08:34:13;;;;;;;43.10;20.17;;;;;;;12.32;57.89;98191.16;5040394;28;20032;-78
2023/01/07 08:36:38;;;;;;;38.63;19.65;;;;;;;12.12;57.22;98164.66;5050161;28;20429;-78
2023/01/07 08:39:04;;;;;;;38.78;19.55;;;;;;;11.72;57.84;98166.91;5050100;28;20037;-77
2023/01/07 08:41:29;;;;;;;39.35;18.20;;;;;;;11.07;60.45;98165.19;5050445;28;20044;-80
2023/01/07 08:43:55;;;;;;;37.00;18.15;;;;;;;12.29;58.36;98191.34;5054056;28;20028;-79
2023/01/07 08:46:20;;;;;;;43.53;20.90;;;;;;;13.42;54.47;98191.56;5027254;28;20427;-75
2023/01/07 08:48:46;;;;;;;42.25;22.70;;;;;;;13.73;53.55;98180.59;5047589;28;20524;-83
2023/01/07 08:51:12;;;;;;;35.55;19.05;;;;;;;13.57;52.42;98150.28;5019303;28;20037;-81
2023/01/07 08:53:37;;;;;;;43.13;22.33;;;;;;;13.44;53.04;98158.25;5032666;28;20456;-84
2023/01/07 08:56:03;;;;;;;37.15;21.05;;;;;;;13.27;53.18;98153.09;5050721;28;20032;-80
2023/01/07 08:58:28;;;;;;;38.97;19.15;;;;;;;12.95;54.73;98155.06;5029905;28;20472;-82
2023/01/07 09:01:00;;;;;;;44.00;23.70;;;;;;;14.45;51.25;98165.97;5033159;28;20034;-86
2023/01/07 09:03:25;;;;;;;36.80;19.07;;;;;;;14.23;50.77;98133.38;5033163;28;20040;-82
2023/01/07 09:05:51;;;;;;;26.73;14.07;;;;;;;14.46;49.84;98124.63;5037265;28;20278;-80
2023/01/07 09:08:16;;;;;;;22.08;12.68;;;;;;;15.39;48.01;98144.06;5033316;28;20119;-80
2023/01/07 09:10:42;;;;;;;21.50;12.10;;;;;;;15.15;47.93;98116.16;5046439;28;20020;-81
2023/01/07 09:13:07;;;;;;;38.25;17.10;;;;;;;14.17;50.13;98106.88;5047831;28;20036;-83
2023/01/07 09:15:33;;;;;;;29.13;15.18;;;;;;;13.80;51.42;98095.03;5039134;28;20039;-79
2023/01/07 09:18:02;;;;;;;28.63;14.10;;;;;;;14.28;51.25;98115.94;5048973;28;20017;-83
2023/01/07 09:20:28;;;;;;;24.83;12.60;;;;;;;15.18;48.78;98110.56;5043405;28;20095;-81
2023/01/07 09:22:53;;;;;;;33.28;13.77;;;;;;;14.90;48.93;98100.00;5040141;28;20033;-78
2023/01/07 09:25:19;;;;;;;34.92;16.83;;;;;;;14.18;51.23;98105.91;5051285;28;20036;-79
2023/01/07 09:27:44;;;;;;;57.60;28.50;;;;;;;15.52;48.79;98115.28;5045510;28;20032;-79
2023/01/07 09:30:11;;;;;;;70.40;38.92;;;;;;;15.79;48.16;98106.97;5064491;28;20068;-79
2023/01/07 09:32:36;;;;;;;57.42;30.15;;;;;;;16.70;45.82;98095.50;5036820;28;20040;-80
2023/01/07 09:35:03;;;;;;;73.50;43.53;;;;;;;16.25;46.53;98072.88;5048925;28;20040;-81
2023/01/07 09:37:28;;;;;;;99.97;51.65;;;;;;;16.20;46.87;98063.41;5050555;28;20020;-80
2023/01/07 09:39:54;;;;;;;93.97;51.90;;;;;;;16.24;46.99;98067.59;5036901;28;20344;-77
2023/01/07 09:42:47;;;;;;;97.03;49.25;;;;;;;16.89;45.49;98067.88;5052377;28;20543;-79
2023/01/07 09:45:24;;;;;;;106.45;49.35;;;;;;;16.87;45.14;98041.97;5053450;28;20029;-76
2023/01/07 09:47:53;;;;;;;78.95;46.88;;;;;;;17.35;44.43;98055.09;5033953;28;20048;-79
2023/01/07 09:50:42;;;;;;;84.20;43.38;;;;;;;17.36;44.11;98050.56;5033247;28;20033;-77
2023/01/07 09:53:20;;;;;;;87.80;43.53;;;;;;;17.37;43.71;98036.06;5029522;28;20028;-76
2023/01/07 09:55:48;;;;;;;79.15;44.33;;;;;;;16.67;44.44;98003.88;5052820;28;20025;-79
2023/01/07 09:58:16;;;;;;;87.70;46.13;;;;;;;15.91;46.30;98013.47;5030268;28;20060;-74
2023/01/07 10:01:06;;;;;;;83.72;44.22;;;;;;;16.98;45.17;98025.78;5034015;28;20032;-76
2023/01/07 10:03:32;;;;;;;77.10;40.38;;;;;;;16.59;45.33;98011.72;5048348;28;20059;-81
2023/01/07 10:06:10;;;;;;;77.68;37.22;;;;;;;16.64;45.67;98009.53;5041513;28;20511;-79
2023/01/07 10:09:07;;;;;;;52.15;31.38;;;;;;;17.71;43.57;98017.94;5034767;28;20055;-78
2023/01/07 10:11:35;;;;;;;58.95;31.90;;;;;;;17.72;43.28;98009.69;4954111;28;20067;-79
2023/01/07 10:14:14;;;;;;;65.40;33.50;;;;;;;18.22;42.50;98007.28;5051043;28;20043;-79
2023/01/07 10:16:44;;;;;;;61.22;34.03;;;;;;;18.08;42.42;97996.75;5053122;28;20031;-80
2023/01/07 10:19:13;;;;;;;62.67;32.95;;;;;;;18.31;42.09;97996.50;5035650;28;20029;-80
2023/01/07 10:21:45;;;;;;;53.35;32.67;;;;;;;19.01;40.67;97994.94;5018226;28;20024;-79
2023/01/07 10:24:27;;;;;;;55.50;31.63;;;;;;;18.61;41.17;97981.34;5020283;28;20025;-80
2023/01/07 10:26:59;;;;;;;52.87;32.13;;;;;;;17.63;42.88;97969.00;5035193;28;20035;-80
2023/01/07 10:29:30;;;;;;;60.00;32.33;;;;;;;17.96;42.61;97982.44;5044910;28;20036;-80
2023/01/07 10:32:00;;;;;;;57.03;32.90;;;;;;;18.33;41.99;97974.72;5056150;28;20039;-80
2023/01/07 10:34:35;;;;;;;62.28;34.50;;;;;;;18.45;41.59;97970.94;5055238;28;20028;-80
2023/01/07 10:37:02;;;;;;;64.43;35.75;;;;;;;18.46;41.68;97959.09;5036507;28;20032;-79
2023/01/07 10:39:31;;;;;;;61.80;33.38;;;;;;;19.50;40.51;97978.72;5035371;28;20079;-80
2023/01/07 10:42:15;;;;;;;60.55;33.05;;;;;;;20.18;38.78;97960.63;5055571;28;20499;-81
2023/01/07 10:45:05;;;;;;;82.55;42.85;;;;;;;20.05;38.91;97944.59;5054607;28;20407;-80
2023/01/07 10:47:49;;;;;;;57.30;31.25;;;;;;;20.95;37.55;97956.69;5033791;28;20090;-81
2023/01/07 10:50:21;;;;;;;53.60;29.95;;;;;;;20.50;38.35;97933.97;5054778;28;20449;-80
2023/01/07 10:53:17;;;;;;;49.13;26.23;;;;;;;20.76;37.95;97931.47;5054631;28;20483;-80
2023/01/07 10:55:50;;;;;;;46.25;27.45;;;;;;;21.15;37.26;97915.84;5054674;28;20024;-81
2023/01/07 10:58:15;;;;;;;29.00;17.40;;;;;;;20.41;38.43;97916.69;5059216;28;20056;-80
2023/01/07 11:00:41;;;;;;;25.35;15.43;;;;;;;20.95;37.51;97915.91;5018073;28;20139;-79
2023/01/07 11:03:17;;;;;;;27.83;16.23;;;;;;;19.97;38.62;97893.72;5034678;28;20044;-79
2023/01/07 11:05:44;;;;;;;30.60;17.70;;;;;;;20.61;38.26;97909.31;5034567;28;20040;-80
2023/01/07 11:08:34;;;;;;;26.05;15.80;;;;;;;21.21;36.85;97907.06;5034364;28;20084;-81
2023/01/07 11:10:59;;;;;;;26.30;15.63;;;;;;;20.82;37.55;97882.78;5038144;28;20036;-80
2023/01/07 11:13:28;;;;;;;30.92;14.60;;;;;;;20.77;37.71;97889.66;5018088;28;20459;-79
2023/01/07 11:16:18;;;;;;;27.42;15.65;;;;;;;21.90;36.29;97899.16;5034590;28;20117;-81
2023/01/07 11:18:50;;;;;;;45.85;25.30;;;;;;;20.47;38.24;97888.91;5013696;28;20033;-78
2023/01/07 11:21:34;;;;;;;35.25;15.35;;;;;;;18.93;40.59;97857.34;5052333;28;20377;-80
2023/01/07 11:24:00;;;;;;;25.75;14.43;;;;;;;18.80;40.71;97873.84;5034043;28;20341;-80
2023/01/07 11:26:29;;;;;;;25.63;15.57;;;;;;;20.58;38.82;97896.00;5042784;28;20034;-80